Lovejoy, Georgia
Current Conditions -  °F | °C
As of 5:55 AM on Monday 20 Oct 2014 (Local Time) from K6A2 Reporting Station
Clear Clear  
Wind Chill: 45°   Ceiling: Unl
Heat Index: 45°   Visibility: 7mi
Dew Point: 45°   Wind: 0mph
Humidity: 100%   Direction: NA
Pressure: 30.1"   Gusts: NA
Location:  33.44°N, 84.31°W
Report Text: K6A2 200955Z AUTO 00000KT 7SM CLR 07/07 A3010 RMK AO2
Loading
Personal Weather Stations






























Interactive Weather Map New forecast layout! Learn more

10-Day Weather Forecast

Advertisements
Track Severe Weather on mobile